Igerna, New York
Current Conditions -  °F | °C
As of 2:53 AM on Monday 22 Dec 2014 (Local Time) from KGFL Reporting Station
Overcast Overcast  
Wind Chill: 27°   Ceiling: 3900
Heat Index: 27°   Visibility: 8mi
Dew Point: 22°   Wind: 3mph
Humidity: 81%   Direction: 10°N
Pressure: 30.36"   Gusts: NA
Location:  43.7289°N, 73.9027°W
Report Text: KGFL 220753Z AUTO 01003KT 8SM OVC039 M03/M06 A3036 RMK AO2 SLP292 T10281056
Loading
Personal Weather Stations






























Interactive Weather Map New forecast layout! Learn more

10-Day Weather Forecast

Advertisements
Track Severe Weather on mobile